Time;durP1;ratioP1;P1;durP2;ratioP2;P2;SDS_P1;SDS_P2;PMS_P1;PMS_P2;Temp;Humidity;BMP_temperature;BMP_pressure;BME280_temperature;BME280_humidity;BME280_pressure;Samples;Min_cycle;Max_cycle;Signal;HPM_P1;HPM_P2
2023/02/19 10:11:58;;;;;;;9.30;8.90;;;11.80;99.90;;;;;;5127110;27;20588;-75
2023/02/19 10:14:34;;;;;;;9.23;8.83;;;13.20;99.90;;;;;;5127355;27;20832;-75
2023/02/19 10:17:04;;;;;;;8.83;8.43;;;13.40;99.90;;;;;;5127526;27;20440;-76
2023/02/19 10:19:30;;;;;;;8.83;8.53;;;13.70;99.90;;;;;;5127531;27;20437;-76
2023/02/19 10:21:57;;;;;;;8.57;8.27;;;14.00;99.90;;;;;;5127123;27;20441;-76
2023/02/19 10:24:27;;;;;;;9.40;8.73;;;14.20;99.30;;;;;;5127166;27;20429;-75
2023/02/19 10:26:55;;;;;;;10.57;10.17;;;14.40;98.90;;;;;;5127254;28;20449;-77
2023/02/19 10:29:23;;;;;;;9.40;9.10;;;14.80;98.40;;;;;;5126882;27;20502;-76
2023/02/19 10:32:11;;;;;;;10.40;9.90;;;15.00;97.40;;;;;;5137660;27;20449;-77
2023/02/19 10:34:38;;;;;;;9.17;8.67;;;14.90;97.50;;;;;;5144079;27;20702;-75
2023/02/19 10:37:10;;;;;;;9.60;9.20;;;14.60;97.70;;;;;;5140530;27;20424;-77
2023/02/19 10:39:41;;;;;;;10.40;9.80;;;14.40;98.40;;;;;;5138412;27;20932;-75
2023/02/19 10:42:16;;;;;;;8.50;8.00;;;14.20;99.20;;;;;;5133932;27;21114;-76
2023/02/19 10:44:46;;;;;;;8.60;8.20;;;14.10;99.60;;;;;;5128962;27;20440;-77
2023/02/19 10:47:18;;;;;;;9.57;9.17;;;14.20;99.40;;;;;;5127278;27;20954;-77
2023/02/19 10:49:47;;;;;;;10.17;9.30;;;14.20;99.90;;;;;;5126880;28;20476;-77
2023/02/19 10:52:17;;;;;;;9.30;8.80;;;14.10;99.20;;;;;;5126390;27;20444;-77
2023/02/19 10:54:45;;;;;;;9.37;8.90;;;14.30;99.30;;;;;;5126545;27;20501;-77
2023/02/19 10:57:33;;;;;;;9.20;8.63;;;14.30;99.00;;;;;;5126920;28;20449;-77
2023/02/19 11:00:02;;;;;;;9.40;9.00;;;14.30;99.40;;;;;;5127246;27;20455;-77
2023/02/19 11:02:30;;;;;;;9.77;9.20;;;14.60;99.40;;;;;;5126813;27;20509;-77
2023/02/19 11:05:18;;;;;;;9.60;8.90;;;14.90;98.30;;;;;;5126700;28;20494;-77
2023/02/19 11:07:47;;;;;;;10.07;9.57;;;15.00;97.60;;;;;;5126644;27;20478;-76
2023/02/19 11:10:25;;;;;;;9.73;9.03;;;14.90;96.70;;;;;;5126720;27;20485;-78
2023/02/19 11:12:56;;;;;;;9.43;8.93;;;15.10;96.90;;;;;;5113100;27;20449;-76
2023/02/19 11:15:25;;;;;;;9.00;8.43;;;15.10;96.60;;;;;;5113075;28;20746;-76
2023/02/19 11:17:58;;;;;;;9.87;9.37;;;15.20;96.40;;;;;;5112776;27;20493;-77
2023/02/19 11:20:26;;;;;;;11.40;10.37;;;15.10;96.30;;;;;;5112779;28;20487;-77
2023/02/19 11:23:00;;;;;;;9.67;9.17;;;14.60;97.00;;;;;;5112574;28;20707;-76
2023/02/19 11:25:28;;;;;;;8.80;8.30;;;14.50;96.80;;;;;;5112515;28;20449;-76
2023/02/19 11:27:59;;;;;;;8.80;8.40;;;14.20;97.10;;;;;;5112503;27;20545;-76
2023/02/19 11:30:35;;;;;;;9.40;9.10;;;14.20;97.70;;;;;;5112480;28;20481;-77
2023/02/19 11:33:24;;;;;;;10.70;8.63;;;14.10;98.20;;;;;;5112543;28;20449;-77
2023/02/19 11:35:52;;;;;;;8.87;8.50;;;14.00;98.50;;;;;;5112023;27;20453;-77
2023/02/19 11:38:20;;;;;;;7.73;7.40;;;14.00;98.40;;;;;;5112293;28;20475;-76
2023/02/19 11:40:54;;;;;;;10.40;9.80;;;13.90;98.30;;;;;;5112602;28;20456;-76
2023/02/19 11:43:37;;;;;;;9.13;8.73;;;13.90;99.20;;;;;;5112126;28;20458;-76
2023/02/19 11:46:09;;;;;;;8.77;8.27;;;13.70;98.90;;;;;;5112274;28;20449;-76
2023/02/19 11:48:52;;;;;;;9.43;9.13;;;13.60;98.80;;;;;;5111989;28;20987;-76
2023/02/19 11:51:42;;;;;;;8.93;8.63;;;13.60;99.00;;;;;;5111896;28;20485;-76
2023/02/19 11:54:22;;;;;;;9.93;9.43;;;13.80;98.60;;;;;;5109212;28;20453;-76
2023/02/19 11:56:55;;;;;;;8.30;7.90;;;14.00;98.70;;;;;;5112030;28;20449;-76
2023/02/19 11:59:31;;;;;;;9.30;8.60;;;13.90;99.10;;;;;;5111880;28;20494;-77
2023/02/19 12:02:24;;;;;;;8.40;8.10;;;14.00;98.80;;;;;;5111990;28;20450;-77
2023/02/19 12:05:09;;;;;;;9.77;9.27;;;14.30;98.70;;;;;;5111571;28;20510;-77
2023/02/19 12:08:14;;;;;;;8.80;8.50;;;14.60;97.90;;;;;;5111628;28;20465;-76
2023/02/19 12:10:52;;;;;;;9.83;9.33;;;14.50;97.40;;;;;;5111398;28;20493;-76
2023/02/19 12:13:30;;;;;;;8.80;8.43;;;14.40;97.60;;;;;;5111575;28;20449;-77
2023/02/19 12:16:13;;;;;;;9.57;9.17;;;14.40;98.10;;;;;;5111696;28;21076;-78
2023/02/19 12:19:12;;;;;;;8.50;8.10;;;14.40;98.20;;;;;;5111934;27;20703;-79
2023/02/19 12:21:53;;;;;;;8.93;8.57;;;14.40;98.00;;;;;;5090667;27;20457;-77
2023/02/19 12:24:51;;;;;;;11.53;11.00;;;14.60;97.60;;;;;;5110737;28;20449;-76
2023/02/19 12:27:27;;;;;;;10.60;10.20;;;14.60;97.00;;;;;;5089649;28;20454;-76
2023/02/19 12:30:16;;;;;;;8.27;7.87;;;14.90;96.40;;;;;;5111476;27;20441;-77
2023/02/19 12:33:08;;;;;;;10.17;9.73;;;15.10;96.00;;;;;;5111283;28;20496;-78
2023/02/19 12:35:58;;;;;;;8.93;8.63;;;15.30;95.40;;;;;;5079554;28;20446;-78
2023/02/19 12:38:32;;;;;;;10.57;9.97;;;15.00;95.00;;;;;;5110973;28;20617;-76
2023/02/19 12:41:25;;;;;;;8.53;8.23;;;15.00;95.40;;;;;;5110935;28;20491;-76
2023/02/19 12:43:56;;;;;;;9.40;8.73;;;14.70;96.00;;;;;;5110853;28;20438;-77
2023/02/19 12:46:29;;;;;;;10.07;9.53;;;14.70;96.10;;;;;;5111020;28;20940;-78
2023/02/19 12:49:03;;;;;;;9.50;9.03;;;14.50;97.00;;;;;;5110619;28;20503;-78
2023/02/19 12:51:37;;;;;;;10.07;9.67;;;14.60;96.90;;;;;;5111195;28;20605;-78
2023/02/19 12:54:11;;;;;;;10.80;10.20;;;14.80;96.60;;;;;;5110626;28;20441;-78
2023/02/19 12:56:42;;;;;;;10.37;9.90;;;14.90;96.60;;;;;;5110656;28;21248;-77
2023/02/19 12:59:14;;;;;;;10.50;9.90;;;15.00;96.20;;;;;;5110480;28;20445;-77
2023/02/19 13:01:46;;;;;;;9.23;8.83;;;15.20;95.30;;;;;;5110049;28;20861;-77
2023/02/19 13:04:25;;;;;;;9.80;9.20;;;15.20;95.30;;;;;;5110166;28;20509;-77
2023/02/19 13:06:56;;;;;;;10.37;9.97;;;15.50;94.80;;;;;;5110009;28;20538;-77
2023/02/19 13:09:29;;;;;;;9.53;9.07;;;15.60;94.60;;;;;;5110054;28;20749;-77
2023/02/19 13:12:00;;;;;;;9.27;8.90;;;15.10;94.60;;;;;;5109948;28;20802;-77
2023/02/19 13:14:30;;;;;;;9.37;9.00;;;14.70;95.50;;;;;;5110304;28;20446;-76
2023/02/19 13:17:01;;;;;;;8.83;8.43;;;14.40;95.80;;;;;;5110039;28;20506;-77
2023/02/19 13:19:30;;;;;;;9.17;8.77;;;14.30;96.50;;;;;;5109977;28;20537;-77
2023/02/19 13:24:56;;;;;;;9.23;8.83;;;14.20;96.80;;;;;;5110140;28;20614;-77
2023/02/19 13:27:55;;;;;;;9.07;8.77;;;14.10;97.20;;;;;;5109968;28;20475;-77
2023/02/19 13:30:34;;;;;;;9.93;9.13;;;14.00;97.20;;;;;;5104479;28;20489;-78
2023/02/19 13:33:14;;;;;;;8.00;7.60;;;13.70;97.40;;;;;;5110046;28;20494;-77
2023/02/19 13:37:06;;;;;;;;;;;;;;;;;;;;;
2023/02/19 13:39:34;;;;;;;9.27;8.67;;;13.40;98.10;;;;;;5041170;28;20448;-77
2023/02/19 13:42:01;;;;;;;9.47;9.00;;;13.20;98.90;;;;;;5044917;28;20479;-78
2023/02/19 13:44:30;;;;;;;9.63;9.13;;;13.20;99.20;;;;;;5091074;28;20549;-77
2023/02/19 13:46:57;;;;;;;9.57;9.07;;;13.10;99.90;;;;;;5109561;28;20559;-76
2023/02/19 13:49:39;;;;;;;10.00;9.60;;;13.00;99.90;;;;;;5109525;28;20482;-76
2023/02/19 13:52:35;;;;;;;9.50;8.90;;;12.80;99.90;;;;;;5109379;28;20481;-77
2023/02/19 13:55:41;;;;;;;9.07;8.60;;;12.90;99.90;;;;;;5109780;28;20456;-76
2023/02/19 13:59:00;;;;;;;8.27;7.87;;;12.90;99.90;;;;;;5109469;28;20456;-76
2023/02/19 14:02:16;;;;;;;8.70;8.20;;;12.90;99.90;;;;;;5109201;28;21157;-77
2023/02/19 14:04:50;;;;;;;9.10;8.70;;;12.80;99.90;;;;;;5109566;28;20447;-77
2023/02/19 14:07:37;;;;;;;10.03;9.63;;;12.60;99.90;;;;;;5109783;28;20813;-77
2023/02/19 14:10:08;;;;;;;9.67;9.07;;;12.50;99.90;;;;;;5109565;28;20483;-76
2023/02/19 14:12:36;;;;;;;9.37;8.83;;;12.40;99.90;;;;;;5109440;28;20477;-77
2023/02/19 14:15:40;;;;;;;8.50;8.10;;;12.30;99.90;;;;;;5109730;28;20456;-78
2023/02/19 14:18:40;;;;;;;9.57;8.97;;;12.20;99.90;;;;;;5109277;28;20823;-78
2023/02/19 14:21:15;;;;;;;9.23;8.73;;;12.20;99.90;;;;;;5109165;28;20456;-78
2023/02/19 14:23:44;;;;;;;10.83;10.33;;;12.10;99.90;;;;;;5109131;28;20444;-78
2023/02/19 14:26:11;;;;;;;8.17;7.87;;;11.90;99.90;;;;;;5109314;28;20540;-77
2023/02/19 14:28:44;;;;;;;8.87;8.27;;;11.90;99.90;;;;;;5109158;28;20445;-76
2023/02/19 14:31:30;;;;;;;8.10;7.73;;;12.00;99.90;;;;;;5108981;28;20844;-77
2023/02/19 14:33:59;;;;;;;8.80;8.40;;;12.20;99.90;;;;;;5108082;28;20556;-77
2023/02/19 14:36:35;;;;;;;8.40;8.10;;;12.50;99.90;;;;;;5108810;28;20475;-77
2023/02/19 14:39:07;;;;;;;9.13;8.67;;;12.50;99.90;;;;;;5109480;28;20449;-77
2023/02/19 14:41:38;;;;;;;9.43;8.80;;;12.60;99.90;;;;;;5108919;28;20498;-76
2023/02/19 14:44:12;;;;;;;10.27;9.77;;;12.70;99.90;;;;;;5109206;28;20946;-78
2023/02/19 14:46:45;;;;;;;11.60;11.00;;;12.70;99.90;;;;;;5110210;28;20453;-76
2023/02/19 14:49:18;;;;;;;8.57;8.23;;;12.80;99.90;;;;;;5112909;28;20463;-76
2023/02/19 14:51:50;;;;;;;9.20;8.70;;;12.80;99.90;;;;;;5113109;28;20477;-76
2023/02/19 14:54:21;;;;;;;9.00;8.50;;;13.00;99.90;;;;;;5113349;28;20453;-76
2023/02/19 14:56:52;;;;;;;9.67;8.97;;;13.10;99.90;;;;;;5112500;28;21001;-77
2023/02/19 14:59:25;;;;;;;8.80;8.40;;;13.20;99.90;;;;;;5112975;27;20746;-77
2023/02/19 15:01:57;;;;;;;9.00;8.50;;;13.10;99.90;;;;;;5112890;27;20936;-76
2023/02/19 15:04:27;;;;;;;8.70;8.13;;;13.00;99.90;;;;;;5112659;28;20445;-78
2023/02/19 15:06:55;;;;;;;11.03;10.43;;;12.90;99.90;;;;;;5112269;28;20472;-78
2023/02/19 15:09:27;;;;;;;9.00;8.70;;;12.90;99.90;;;;;;5112194;28;20449;-77
2023/02/19 15:11:55;;;;;;;9.43;9.00;;;12.80;99.90;;;;;;5112171;28;20492;-78
2023/02/19 15:14:27;;;;;;;8.80;8.40;;;12.70;99.90;;;;;;5112279;28;20501;-77
2023/02/19 15:16:58;;;;;;;9.00;8.50;;;12.70;99.90;;;;;;5112241;28;20453;-77
2023/02/19 15:19:24;;;;;;;8.77;8.47;;;12.80;99.90;;;;;;5112290;28;21113;-78
2023/02/19 15:21:53;;;;;;;9.43;9.03;;;12.80;99.90;;;;;;5112052;28;20446;-78
2023/02/19 15:24:20;;;;;;;8.90;8.50;;;12.90;99.90;;;;;;5112008;27;20480;-77
2023/02/19 15:26:52;;;;;;;9.77;9.40;;;12.90;99.90;;;;;;5112295;28;20622;-77
2023/02/19 15:29:21;;;;;;;10.30;9.80;;;12.90;99.90;;;;;;5112117;28;20691;-78
2023/02/19 15:31:50;;;;;;;7.90;7.50;;;12.70;99.90;;;;;;5112149;27;20897;-78
2023/02/19 15:34:19;;;;;;;8.67;8.30;;;12.70;99.90;;;;;;5112162;27;20457;-78
2023/02/19 15:36:46;;;;;;;9.80;9.30;;;12.80;99.90;;;;;;5112317;28;20504;-77
2023/02/19 15:39:20;;;;;;;9.87;9.40;;;12.70;99.90;;;;;;5112217;28;20449;-77
2023/02/19 15:41:54;;;;;;;9.20;8.60;;;12.70;99.90;;;;;;5112126;28;20457;-77
2023/02/19 15:44:32;;;;;;;10.50;9.60;;;12.50;99.90;;;;;;5111627;28;20494;-77
2023/02/19 15:47:02;;;;;;;9.10;8.60;;;12.50;99.90;;;;;;5111676;28;20445;-77
2023/02/19 15:49:35;;;;;;;10.10;9.30;;;12.60;99.90;;;;;;5111866;28;20471;-77
2023/02/19 15:52:06;;;;;;;9.47;9.03;;;12.40;99.90;;;;;;5111780;27;20490;-77
2023/02/19 15:54:37;;;;;;;10.20;9.80;;;12.40;99.90;;;;;;5111873;28;20797;-78
2023/02/19 15:57:12;;;;;;;10.50;9.90;;;12.30;99.90;;;;;;5111581;28;20449;-77
2023/02/19 15:59:42;;;;;;;10.03;9.63;;;12.20;99.90;;;;;;5111535;28;20448;-77
2023/02/19 16:02:12;;;;;;;9.97;9.43;;;12.20;99.90;;;;;;5111260;28;20453;-77
2023/02/19 16:04:41;;;;;;;10.70;10.20;;;12.30;99.90;;;;;;5111307;28;20453;-77
2023/02/19 16:07:24;;;;;;;9.60;9.30;;;12.20;99.90;;;;;;5111198;28;21230;-78
2023/02/19 16:10:06;;;;;;;10.50;10.00;;;12.10;99.90;;;;;;5111317;28;20473;-78
2023/02/19 16:12:34;;;;;;;10.33;9.67;;;12.10;99.90;;;;;;5111374;28;20576;-77
2023/02/19 16:15:13;;;;;;;9.63;9.27;;;12.10;99.90;;;;;;5111212;28;20442;-78
2023/02/19 16:17:43;;;;;;;9.20;8.70;;;12.10;99.90;;;;;;5111261;28;20952;-77
2023/02/19 16:20:20;;;;;;;9.80;9.33;;;12.10;99.90;;;;;;5110951;28;20450;-77
2023/02/19 16:22:47;;;;;;;9.40;9.00;;;12.00;99.90;;;;;;5111164;28;20928;-77
2023/02/19 16:25:25;;;;;;;11.10;10.50;;;12.00;99.90;;;;;;5111129;28;20472;-76
2023/02/19 16:27:54;;;;;;;10.77;10.13;;;12.00;99.90;;;;;;5110963;28;20506;-76
2023/02/19 16:30:29;;;;;;;11.37;10.60;;;11.90;99.90;;;;;;5110811;28;20449;-77
2023/02/19 16:33:35;;;;;;;10.80;10.17;;;11.90;99.90;;;;;;5110789;28;20541;-76
2023/02/19 16:36:20;;;;;;;10.13;9.60;;;11.80;99.90;;;;;;5105744;28;20916;-77
2023/02/19 16:39:15;;;;;;;10.60;9.90;;;11.70;99.90;;;;;;5111092;28;20545;-76
2023/02/19 16:42:14;;;;;;;9.97;9.27;;;11.70;99.90;;;;;;5110548;28;20445;-77
2023/02/19 16:44:43;;;;;;;9.07;8.40;;;11.60;99.90;;;;;;5110553;28;20488;-76
2023/02/19 16:47:31;;;;;;;9.50;9.10;;;11.60;99.90;;;;;;5110259;28;20856;-77
2023/02/19 16:50:01;;;;;;;11.27;10.47;;;11.50;99.90;;;;;;5110615;28;20458;-77
2023/02/19 16:52:29;;;;;;;10.03;9.53;;;11.60;99.90;;;;;;5110545;28;20485;-77
2023/02/19 16:54:56;;;;;;;10.50;9.90;;;11.60;99.90;;;;;;5110524;28;20504;-77
2023/02/19 16:57:23;;;;;;;9.90;9.50;;;11.60;99.90;;;;;;5110620;27;20554;-77
2023/02/19 16:59:51;;;;;;;9.90;9.30;;;11.60;99.90;;;;;;5110684;28;20518;-77
2023/02/19 17:02:22;;;;;;;10.30;9.87;;;11.60;99.90;;;;;;5110782;28;20504;-78
2023/02/19 17:04:50;;;;;;;9.23;8.77;;;11.50;99.90;;;;;;5110654;28;20445;-78
2023/02/19 17:07:18;;;;;;;10.80;10.13;;;11.50;99.90;;;;;;5110853;28;20877;-77
2023/02/19 17:09:44;;;;;;;10.70;10.00;;;11.40;99.90;;;;;;5109929;27;20540;-77
2023/02/19 17:12:13;;;;;;;10.07;9.43;;;11.40;99.90;;;;;;5109984;28;20899;-78
2023/02/19 17:14:39;;;;;;;9.60;8.83;;;11.40;99.90;;;;;;5110245;28;20702;-76
2023/02/19 17:17:08;;;;;;;10.60;10.10;;;11.40;99.90;;;;;;5110277;28;20449;-76
2023/02/19 17:19:34;;;;;;;9.83;9.30;;;11.40;99.90;;;;;;5110294;28;20457;-76
2023/02/19 17:22:02;;;;;;;10.13;9.53;;;11.30;99.90;;;;;;5110353;28;20448;-77
2023/02/19 17:24:29;;;;;;;11.10;10.20;;;11.40;99.90;;;;;;5110313;28;20455;-77
2023/02/19 17:26:56;;;;;;;11.67;11.07;;;11.30;99.90;;;;;;5110069;28;20436;-76
2023/02/19 17:29:23;;;;;;;10.20;9.53;;;11.20;99.90;;;;;;5110160;28;20441;-77
2023/02/19 17:31:50;;;;;;;10.23;9.63;;;11.30;99.90;;;;;;5109928;28;20492;-77
2023/02/19 17:34:18;;;;;;;9.97;9.27;;;11.30;99.90;;;;;;5110415;28;20433;-77
2023/02/19 17:36:45;;;;;;;9.27;8.57;;;11.20;99.90;;;;;;5110322;28;20445;-77
2023/02/19 17:39:14;;;;;;;10.33;9.53;;;11.20;99.90;;;;;;5110027;28;20512;-77
2023/02/19 17:41:41;;;;;;;10.00;9.50;;;11.20;99.90;;;;;;5110361;28;20474;-76
2023/02/19 17:44:08;;;;;;;9.93;9.13;;;11.20;99.90;;;;;;5110082;28;20450;-77
2023/02/19 17:46:35;;;;;;;10.47;9.97;;;11.20;99.90;;;;;;5110133;28;20455;-77
2023/02/19 17:49:01;;;;;;;10.57;10.07;;;11.20;99.90;;;;;;5110118;28;20947;-77
2023/02/19 17:51:29;;;;;;;9.30;8.90;;;11.20;99.90;;;;;;5109866;28;20467;-77
2023/02/19 17:53:56;;;;;;;9.97;9.27;;;11.20;99.90;;;;;;5110098;28;20452;-77
2023/02/19 17:56:25;;;;;;;9.60;9.10;;;11.10;99.90;;;;;;5109680;28;20532;-78
2023/02/19 17:58:52;;;;;;;9.57;9.07;;;11.10;99.90;;;;;;5109507;28;20443;-77
